createdAt,value
2018-06-11T00:02:02.939Z,21.15
2018-06-11T00:04:32.084Z,21.06
2018-06-11T00:07:01.526Z,21.08
2018-06-11T00:09:31.044Z,21.09
2018-06-11T00:12:00.453Z,21.07
2018-06-11T00:14:29.933Z,20.97
2018-06-11T00:16:59.503Z,21.08
2018-06-11T00:19:29.107Z,20.85
2018-06-11T00:21:58.551Z,20.95
2018-06-11T00:24:27.964Z,21.01
2018-06-11T00:26:57.619Z,21.06
2018-06-11T00:29:27.164Z,21.05
2018-06-11T00:31:56.612Z,21.04
2018-06-11T00:34:26.046Z,20.93
2018-06-11T00:36:56.213Z,21.02
2018-06-11T00:39:25.776Z,21.08
2018-06-11T00:41:55.219Z,20.88
2018-06-11T00:44:24.684Z,20.92
2018-06-11T00:46:54.236Z,20.96
2018-06-11T00:49:23.682Z,20.90
2018-06-11T00:51:53.103Z,20.91
2018-06-11T00:54:22.567Z,21.04
2018-06-11T00:56:52.097Z,21.01
2018-06-11T00:59:21.543Z,21.05
2018-06-11T01:01:50.952Z,21.04
2018-06-11T01:04:20.497Z,21.00
2018-06-11T01:06:50.073Z,20.97
2018-06-11T01:09:19.507Z,21.00
2018-06-11T01:11:48.936Z,20.87
2018-06-11T01:14:19.114Z,20.81
2018-06-11T01:16:48.668Z,20.88
2018-06-11T01:19:18.109Z,20.75
2018-06-11T01:21:47.509Z,20.70
2018-06-11T01:24:17.047Z,20.68
2018-06-11T01:26:46.480Z,20.63
2018-06-11T01:29:15.903Z,20.67
2018-06-11T01:31:45.385Z,20.52
2018-06-11T01:34:14.891Z,20.53
2018-06-11T01:36:44.311Z,20.65
2018-06-11T01:39:13.723Z,20.69
2018-06-11T01:41:43.171Z,20.59
2018-06-11T01:44:12.640Z,20.62
2018-06-11T01:46:42.059Z,20.54
2018-06-11T01:49:11.485Z,20.43
2018-06-11T01:51:40.961Z,20.44
2018-06-11T01:54:10.379Z,20.47
2018-06-11T01:56:39.849Z,20.47
2018-06-11T01:59:09.395Z,20.31
2018-06-11T02:01:38.803Z,20.36
2018-06-11T02:04:08.213Z,20.37
2018-06-11T02:06:37.672Z,20.28
2018-06-11T02:09:08.610Z,20.33
2018-06-11T02:11:38.115Z,20.11
2018-06-11T02:14:07.547Z,20.11
2018-06-11T02:16:36.945Z,20.03
2018-06-11T02:19:06.467Z,20.10
2018-06-11T02:21:35.914Z,19.98
2018-06-11T02:24:05.337Z,19.90
2018-06-11T02:26:34.772Z,20.05
2018-06-11T02:29:04.258Z,19.95
2018-06-11T02:31:33.690Z,19.82
2018-06-11T02:34:03.187Z,19.83
2018-06-11T02:36:32.640Z,19.80
2018-06-11T02:39:02.099Z,19.77
2018-06-11T02:41:31.483Z,19.72
2018-06-11T02:44:00.892Z,19.83
2018-06-11T02:46:30.405Z,19.67
2018-06-11T02:48:59.883Z,19.67
2018-06-11T02:51:29.394Z,19.71
2018-06-11T02:53:58.835Z,19.62
2018-06-11T02:56:28.317Z,19.54
2018-06-11T02:58:57.735Z,19.37
2018-06-11T03:01:27.284Z,19.31
2018-06-11T03:03:56.746Z,19.42
2018-06-11T03:06:26.153Z,19.53
2018-06-11T03:08:55.536Z,19.47
2018-06-11T03:11:24.974Z,19.28
2018-06-11T03:13:54.487Z,19.32
2018-06-11T03:16:23.953Z,19.38
2018-06-11T03:18:53.358Z,19.37
2018-06-11T03:21:22.850Z,19.39
2018-06-11T03:23:52.337Z,19.39
2018-06-11T03:26:21.764Z,19.32
2018-06-11T03:28:51.198Z,19.32
2018-06-11T03:31:20.655Z,19.38
2018-06-11T03:33:50.149Z,19.22
2018-06-11T03:36:19.563Z,19.23
2018-06-11T03:38:49.015Z,19.12
2018-06-11T03:41:18.417Z,19.08
2018-06-11T03:43:47.859Z,19.08
2018-06-11T03:46:17.427Z,19.10
2018-06-11T03:48:47.286Z,19.11
2018-06-11T03:51:16.784Z,19.17
2018-06-11T03:53:46.224Z,19.20
2018-06-11T03:56:15.695Z,19.29
2018-06-11T03:58:45.144Z,19.31
2018-06-11T04:01:14.603Z,19.13
2018-06-11T04:03:44.027Z,19.18
2018-06-11T04:06:13.457Z,19.14
2018-06-11T04:08:42.969Z,19.11
2018-06-11T04:11:12.446Z,19.22
2018-06-11T04:13:41.801Z,19.28
2018-06-11T04:16:11.297Z,19.31
2018-06-11T04:18:40.744Z,19.32
2018-06-11T04:21:10.172Z,19.38
2018-06-11T04:23:39.607Z,19.45
2018-06-11T04:26:09.090Z,19.47
2018-06-11T04:28:38.559Z,19.55
2018-06-11T04:31:07.964Z,19.64
2018-06-11T04:33:37.374Z,19.75
2018-06-11T04:36:06.938Z,19.86
2018-06-11T04:38:36.373Z,19.98
2018-06-11T04:41:05.892Z,20.07
2018-06-11T04:43:35.537Z,19.96
2018-06-11T04:46:05.225Z,20.10
2018-06-11T04:48:34.692Z,20.19
2018-06-11T04:51:03.830Z,20.31
2018-06-11T04:53:33.344Z,20.17
2018-06-11T04:56:02.847Z,20.15
2018-06-11T04:58:32.263Z,20.28
2018-06-11T05:01:01.730Z,20.10
2018-06-11T05:03:31.294Z,20.45
2018-06-11T05:06:00.785Z,20.54
2018-06-11T05:08:30.204Z,20.55
2018-06-11T05:10:59.762Z,20.56
2018-06-11T05:13:29.212Z,20.32
2018-06-11T05:16:01.115Z,20.54
2018-06-11T05:18:30.600Z,20.70
2018-06-11T05:21:00.080Z,20.77
2018-06-11T05:23:29.606Z,20.84
2018-06-11T05:25:59.147Z,21.00
2018-06-11T05:28:28.630Z,20.95
2018-06-11T05:30:58.036Z,20.96
2018-06-11T05:33:27.619Z,20.95
2018-06-11T05:35:57.184Z,20.82
2018-06-11T05:38:26.577Z,20.81
2018-06-11T05:40:56.111Z,20.84
2018-06-11T05:43:25.606Z,20.92
2018-06-11T05:45:55.019Z,20.88
2018-06-11T05:48:24.433Z,20.84
2018-06-11T05:50:54.200Z,20.82
2018-06-11T05:53:23.678Z,20.92
2018-06-11T05:55:53.103Z,21.03
2018-06-11T05:58:22.503Z,20.98
2018-06-11T06:00:51.973Z,20.76
2018-06-11T06:03:21.536Z,20.93
2018-06-11T06:05:50.954Z,21.06
2018-06-11T06:08:20.487Z,21.22
2018-06-11T06:10:50.090Z,21.26
2018-06-11T06:13:19.517Z,21.26
2018-06-11T06:15:48.971Z,21.27
2018-06-11T06:18:18.595Z,21.23
2018-06-11T06:20:48.040Z,21.31
2018-06-11T06:23:17.524Z,21.28
2018-06-11T06:25:47.051Z,21.25
2018-06-11T06:28:16.493Z,21.27
2018-06-11T06:30:45.962Z,21.24
2018-06-11T06:33:15.122Z,21.28
2018-06-11T06:35:44.547Z,21.18
2018-06-11T06:38:14.052Z,21.23
2018-06-11T06:40:43.465Z,21.23
2018-06-11T06:43:12.886Z,21.29
2018-06-11T06:45:42.403Z,21.44
2018-06-11T06:48:11.959Z,21.70
2018-06-11T06:50:41.423Z,21.63
2018-06-11T06:53:10.878Z,21.82
2018-06-11T06:55:40.445Z,21.98
2018-06-11T06:58:09.930Z,22.03
2018-06-11T07:00:39.823Z,21.84
2018-06-11T07:03:09.333Z,22.01
2018-06-11T07:05:38.915Z,21.78
2018-06-11T07:08:08.540Z,21.75
2018-06-11T07:10:37.989Z,21.90
2018-06-11T07:13:07.586Z,21.86
2018-06-11T07:15:37.024Z,22.00
2018-06-11T07:18:06.459Z,22.33
2018-06-11T07:20:35.889Z,22.47
2018-06-11T07:23:05.423Z,22.64
2018-06-11T07:25:34.932Z,22.78
2018-06-11T07:28:04.194Z,22.82
2018-06-11T07:30:33.637Z,23.01
2018-06-11T07:33:03.268Z,23.07
2018-06-11T07:35:32.687Z,23.18
2018-06-11T07:38:02.114Z,23.16
2018-06-11T07:40:31.644Z,23.09
2018-06-11T07:43:01.666Z,23.06
2018-06-11T07:45:31.169Z,22.58
2018-06-11T07:48:00.608Z,22.61
2018-06-11T07:50:30.167Z,22.72
2018-06-11T07:52:59.617Z,22.54
2018-06-11T07:55:29.051Z,22.61
2018-06-11T07:57:58.492Z,22.78
2018-06-11T08:00:28.026Z,22.94
2018-06-11T08:02:57.488Z,23.12
2018-06-11T08:05:26.924Z,23.32
2018-06-11T08:07:56.374Z,23.45
2018-06-11T08:10:25.969Z,23.49
2018-06-11T08:12:55.373Z,23.76
2018-06-11T08:15:24.775Z,24.10
2018-06-11T08:17:54.264Z,23.99
2018-06-11T08:20:23.869Z,24.35
2018-06-11T08:22:53.304Z,24.58
2018-06-11T08:25:22.780Z,24.79
2018-06-11T08:27:52.319Z,24.81
2018-06-11T08:30:21.781Z,25.16
2018-06-11T08:32:51.231Z,25.26
2018-06-11T08:35:20.711Z,25.24
2018-06-11T08:37:50.314Z,25.23
2018-06-11T08:40:19.737Z,25.52
2018-06-11T08:42:49.155Z,25.64
2018-06-11T08:45:18.672Z,25.63
2018-06-11T08:47:48.228Z,25.27
2018-06-11T08:50:17.666Z,25.77
2018-06-11T08:52:47.172Z,25.79
2018-06-11T08:55:16.687Z,26.06
2018-06-11T08:57:46.244Z,26.04
2018-06-11T09:00:15.704Z,26.38
2018-06-11T09:02:45.307Z,26.31
2018-06-11T09:05:14.897Z,25.93
2018-06-11T09:07:44.371Z,25.97
2018-06-11T09:10:13.800Z,25.99
2018-06-11T09:12:43.587Z,25.83
2018-06-11T09:15:13.120Z,26.22
2018-06-11T09:17:42.575Z,26.05
2018-06-11T09:20:12.033Z,26.08
2018-06-11T09:22:41.593Z,26.37
2018-06-11T09:25:11.200Z,26.68
2018-06-11T09:27:40.662Z,26.53
2018-06-11T09:30:10.120Z,26.89
2018-06-11T09:32:39.685Z,26.93
2018-06-11T09:35:09.167Z,26.99
2018-06-11T09:37:38.605Z,27.06
2018-06-11T09:40:08.069Z,27.24
2018-06-11T09:42:37.558Z,27.10
2018-06-11T09:45:07.031Z,26.78
2018-06-11T09:47:36.462Z,26.62
2018-06-11T09:50:06.023Z,26.65
2018-06-11T09:52:35.536Z,27.01
2018-06-11T09:55:05.012Z,26.91
2018-06-11T09:57:34.498Z,27.10
2018-06-11T10:00:03.777Z,27.44
2018-06-11T10:02:33.221Z,27.54
2018-06-11T10:05:02.685Z,27.69
2018-06-11T10:07:32.314Z,27.80
2018-06-11T10:10:01.941Z,27.80
2018-06-11T10:12:31.435Z,28.05
2018-06-11T10:15:00.883Z,27.98
2018-06-11T10:17:30.455Z,27.61
2018-06-11T10:19:59.993Z,27.75
2018-06-11T10:22:29.434Z,28.10
2018-06-11T10:24:58.998Z,28.40
2018-06-11T10:27:28.598Z,28.37
2018-06-11T10:29:58.077Z,28.39
2018-06-11T10:32:27.494Z,28.78
2018-06-11T10:34:56.992Z,28.84
2018-06-11T10:37:26.465Z,28.99
2018-06-11T10:39:55.930Z,28.97
2018-06-11T10:42:25.428Z,29.30
2018-06-11T10:44:55.077Z,29.67
2018-06-11T10:47:24.608Z,29.64
2018-06-11T10:49:54.036Z,29.63
2018-06-11T10:52:23.539Z,29.74
2018-06-11T10:54:53.128Z,30.01
2018-06-11T10:57:22.918Z,30.01
2018-06-11T10:59:52.353Z,30.15
2018-06-11T11:02:21.986Z,30.25
2018-06-11T11:04:52.165Z,30.57
2018-06-11T11:07:21.680Z,30.63
2018-06-11T11:09:51.080Z,30.64
2018-06-11T11:12:20.569Z,30.70
2018-06-11T11:14:50.084Z,30.97
2018-06-11T11:17:19.496Z,31.41
2018-06-11T11:19:48.974Z,31.67
2018-06-11T11:22:18.497Z,31.09
2018-06-11T11:24:47.995Z,31.06
2018-06-11T11:27:17.457Z,30.75
2018-06-11T11:29:46.942Z,31.14
2018-06-11T11:32:16.412Z,31.18
2018-06-11T11:34:45.940Z,31.04
2018-06-11T11:37:15.333Z,31.46
2018-06-11T11:39:44.803Z,31.88
2018-06-11T11:42:14.348Z,31.68
2018-06-11T11:44:43.755Z,31.59
2018-06-11T11:47:13.206Z,31.45
2018-06-11T11:49:42.679Z,31.74
2018-06-11T11:52:12.196Z,31.90
2018-06-11T11:54:41.646Z,32.17
2018-06-11T11:57:11.109Z,32.75
2018-06-11T11:59:40.645Z,32.41
2018-06-11T12:02:10.233Z,33.48
2018-06-11T12:04:39.648Z,33.59
2018-06-11T12:07:09.078Z,33.84
2018-06-11T12:09:38.333Z,34.35
2018-06-11T12:12:07.828Z,35.14
2018-06-11T12:14:37.314Z,35.61
2018-06-11T12:17:07.011Z,36.29
2018-06-11T12:19:36.550Z,37.87
2018-06-11T12:22:05.963Z,37.93
2018-06-11T12:24:35.474Z,39.32
2018-06-11T12:27:05.534Z,40.35
2018-06-11T12:29:34.934Z,41.22
2018-06-11T12:32:04.459Z,41.13
2018-06-11T12:34:33.922Z,40.95
2018-06-11T12:37:03.503Z,40.63
2018-06-11T12:39:33.025Z,41.93
2018-06-11T12:42:02.444Z,41.90
2018-06-11T12:44:31.974Z,42.37
2018-06-11T12:47:03.177Z,42.13
2018-06-11T12:49:32.657Z,41.66
2018-06-11T12:52:02.096Z,42.31
2018-06-11T12:54:31.546Z,42.36
2018-06-11T12:57:01.324Z,42.72
2018-06-11T12:59:30.733Z,42.93
2018-06-11T13:02:00.164Z,42.94
2018-06-11T13:04:29.650Z,43.42
2018-06-11T13:07:00.183Z,42.74
2018-06-11T13:09:29.666Z,43.10
2018-06-11T13:11:59.047Z,41.20
2018-06-11T13:14:28.537Z,39.43
2018-06-11T13:16:58.141Z,39.45
2018-06-11T13:19:27.568Z,39.23
2018-06-11T13:21:57.022Z,38.78
2018-06-11T13:24:26.472Z,36.96
2018-06-11T13:26:56.057Z,36.60
2018-06-11T13:29:25.471Z,36.46
2018-06-11T13:31:55.006Z,35.60
2018-06-11T13:34:24.497Z,34.84
2018-06-11T13:36:53.992Z,35.30
2018-06-11T13:39:23.412Z,35.76
2018-06-11T13:41:52.883Z,36.16
2018-06-11T13:44:22.426Z,37.08
2018-06-11T13:46:51.977Z,36.89
2018-06-11T13:49:22.247Z,36.71
2018-06-11T13:51:51.721Z,37.13
2018-06-11T13:54:21.206Z,37.22
2018-06-11T13:56:50.731Z,37.60
2018-06-11T13:59:20.221Z,36.76
2018-06-11T14:01:49.871Z,35.79
2018-06-11T14:04:19.470Z,35.98
2018-06-11T14:06:49.108Z,35.61
2018-06-11T14:12:02.611Z,34.98
2018-06-11T14:14:32.216Z,35.70
2018-06-11T14:17:01.715Z,35.63
2018-06-11T14:19:31.291Z,37.28
2018-06-11T14:22:00.822Z,38.03
2018-06-11T14:24:30.305Z,38.76
2018-06-11T14:26:59.871Z,39.68
2018-06-11T14:29:29.283Z,40.30
2018-06-11T14:31:58.909Z,40.63
2018-06-11T14:34:28.435Z,41.21
2018-06-11T14:36:57.872Z,40.33
2018-06-11T14:39:27.400Z,39.83
2018-06-11T14:41:56.900Z,39.19
2018-06-11T14:44:26.436Z,38.78
2018-06-11T14:46:55.978Z,37.59
2018-06-11T14:49:25.502Z,36.88
2018-06-11T14:51:54.951Z,36.38
2018-06-11T14:54:24.429Z,35.03
2018-06-11T14:56:53.860Z,34.22
2018-06-11T14:59:23.293Z,33.73
2018-06-11T15:01:52.743Z,32.99
2018-06-11T15:04:22.207Z,32.93
2018-06-11T15:06:51.691Z,32.17
2018-06-11T15:09:21.311Z,31.75
2018-06-11T15:11:50.946Z,31.36
2018-06-11T15:14:20.398Z,31.25
2018-06-11T15:16:49.814Z,30.92
2018-06-11T15:19:19.248Z,30.52
2018-06-11T15:21:49.076Z,30.46
2018-06-11T15:24:18.483Z,30.28
2018-06-11T15:26:48.008Z,29.96
2018-06-11T15:29:17.482Z,29.80
2018-06-11T15:31:46.921Z,29.82
2018-06-11T15:34:16.363Z,29.76
2018-06-11T15:36:45.866Z,29.90
2018-06-11T15:39:15.335Z,29.72
2018-06-11T15:41:44.850Z,29.49
2018-06-11T15:44:14.453Z,29.26
2018-06-11T15:46:43.984Z,29.15
2018-06-11T15:49:13.576Z,28.84
2018-06-11T15:51:43.078Z,28.81
2018-06-11T15:54:12.533Z,28.77
2018-06-11T15:56:42.057Z,28.49
2018-06-11T15:59:11.529Z,28.73
2018-06-11T16:01:40.983Z,28.61
2018-06-11T16:04:10.471Z,28.55
2018-06-11T16:06:39.964Z,28.59
2018-06-11T16:09:09.560Z,28.69
2018-06-11T16:11:39.408Z,28.42
2018-06-11T16:14:09.461Z,28.33
2018-06-11T16:16:39.018Z,28.10
2018-06-11T16:19:08.523Z,28.28
2018-06-11T16:21:37.988Z,28.04
2018-06-11T16:24:07.551Z,28.09
2018-06-11T16:26:37.176Z,27.98
2018-06-11T16:29:06.947Z,27.84
2018-06-11T16:31:36.354Z,28.00
2018-06-11T16:34:05.821Z,27.76
2018-06-11T16:36:35.332Z,27.50
2018-06-11T16:39:07.632Z,27.44
2018-06-11T16:41:37.066Z,27.24
2018-06-11T16:44:06.551Z,26.97
2018-06-11T16:46:36.101Z,27.06
2018-06-11T16:49:05.809Z,27.03
2018-06-11T16:51:35.336Z,27.12
2018-06-11T16:54:04.768Z,27.17
2018-06-11T16:56:35.320Z,27.16
2018-06-11T16:59:04.844Z,27.30
2018-06-11T17:01:34.275Z,27.29
2018-06-11T17:04:03.706Z,27.23
2018-06-11T17:06:33.254Z,27.08
2018-06-11T17:09:02.807Z,27.11
2018-06-11T17:11:32.639Z,26.91
2018-06-11T17:14:02.062Z,26.98
2018-06-11T17:16:31.576Z,27.11
2018-06-11T17:19:01.311Z,27.10
2018-06-11T17:21:30.714Z,27.08
2018-06-11T17:24:00.214Z,27.13
2018-06-11T17:26:29.758Z,26.88
2018-06-11T17:28:59.246Z,26.84
2018-06-11T17:31:28.643Z,26.96
2018-06-11T17:33:58.112Z,26.64
2018-06-11T17:36:27.710Z,26.93
2018-06-11T17:38:57.194Z,26.60
2018-06-11T17:41:26.631Z,26.71
2018-06-11T17:43:56.078Z,26.62
2018-06-11T17:46:25.539Z,26.76
2018-06-11T17:48:54.690Z,26.64
2018-06-11T17:51:24.192Z,26.26
2018-06-11T17:53:53.645Z,26.34
2018-06-11T17:56:23.185Z,26.57
2018-06-11T17:58:52.640Z,26.45
2018-06-11T18:01:22.211Z,26.36
2018-06-11T18:03:51.795Z,26.26
2018-06-11T18:06:21.235Z,26.14
2018-06-11T18:08:50.677Z,26.30
2018-06-11T18:11:20.171Z,26.14
2018-06-11T18:13:49.623Z,26.01
2018-06-11T18:16:19.088Z,26.05
2018-06-11T18:18:48.579Z,25.99
2018-06-11T18:21:17.993Z,25.93
2018-06-11T18:23:47.432Z,25.67
2018-06-11T18:26:16.914Z,25.82
2018-06-11T18:28:46.414Z,25.67
2018-06-11T18:31:15.935Z,25.74
2018-06-11T18:33:45.379Z,25.61
2018-06-11T18:36:14.915Z,25.74
2018-06-11T18:38:44.508Z,25.51
2018-06-11T18:41:14.018Z,25.61
2018-06-11T18:43:43.457Z,25.56
2018-06-11T18:46:12.998Z,25.49
2018-06-11T18:48:42.520Z,25.49
2018-06-11T18:51:11.954Z,25.54
2018-06-11T18:53:41.400Z,25.16
2018-06-11T18:56:11.052Z,25.15
2018-06-11T18:58:40.593Z,25.26
2018-06-11T19:01:09.771Z,25.11
2018-06-11T19:03:40.068Z,25.30
2018-06-11T19:06:09.728Z,25.12
2018-06-11T19:08:39.327Z,25.26
2018-06-11T19:11:08.897Z,25.07
2018-06-11T19:13:38.349Z,25.22
2018-06-11T19:16:07.895Z,24.85
2018-06-11T19:18:37.355Z,24.79
2018-06-11T19:21:06.665Z,24.79
2018-06-11T19:23:36.230Z,24.65
2018-06-11T19:26:05.909Z,24.74
2018-06-11T19:28:35.445Z,24.67
2018-06-11T19:31:05.031Z,24.78
2018-06-11T19:33:34.550Z,24.74
2018-06-11T19:36:04.155Z,24.82
2018-06-11T19:38:33.624Z,24.80
2018-06-11T19:41:03.579Z,24.79
2018-06-11T19:43:33.289Z,24.85
2018-06-11T19:46:02.719Z,24.60
2018-06-11T19:48:33.353Z,24.44
2018-06-11T19:51:02.927Z,24.48
2018-06-11T19:53:32.915Z,24.40
2018-06-11T19:56:02.431Z,24.50
2018-06-11T19:58:31.946Z,24.51
2018-06-11T20:01:01.463Z,24.54
2018-06-11T20:03:31.062Z,24.35
2018-06-11T20:06:00.701Z,24.21
2018-06-11T20:08:30.620Z,24.23
2018-06-11T20:11:00.679Z,24.17
2018-06-11T20:13:30.246Z,24.24
2018-06-11T20:15:59.906Z,24.14
2018-06-11T20:18:29.595Z,24.22
2018-06-11T20:20:59.734Z,24.20
2018-06-11T20:23:32.324Z,24.04
2018-06-11T20:26:01.841Z,23.83
2018-06-11T20:31:08.994Z,23.87
2018-06-11T20:33:38.648Z,23.84
2018-06-11T20:36:08.234Z,23.99
2018-06-11T20:38:37.646Z,23.82
2018-06-11T20:41:07.269Z,23.76
2018-06-11T20:43:36.756Z,23.46
2018-06-11T20:46:06.200Z,23.60
2018-06-11T20:48:35.681Z,23.88
2018-06-11T20:51:06.072Z,23.66
2018-06-11T20:53:35.753Z,23.54
2018-06-11T20:56:05.239Z,23.70
2018-06-11T20:58:34.675Z,23.48
2018-06-11T21:01:04.313Z,23.67
2018-06-11T21:03:33.949Z,23.60
2018-06-11T21:06:03.470Z,23.74
2018-06-11T21:08:32.997Z,23.57
2018-06-11T21:11:02.543Z,23.70
2018-06-11T21:13:32.590Z,23.61
2018-06-11T21:16:02.101Z,23.55
2018-06-11T21:18:31.528Z,23.58
2018-06-11T21:21:01.115Z,23.41
2018-06-11T21:23:30.549Z,23.27
2018-06-11T21:25:59.988Z,23.21
2018-06-11T21:28:29.451Z,23.24
2018-06-11T21:30:59.048Z,23.24
2018-06-11T21:33:28.509Z,23.16
2018-06-11T21:35:58.045Z,23.18
2018-06-11T21:38:27.524Z,23.01
2018-06-11T21:40:57.057Z,22.94
2018-06-11T21:43:26.602Z,22.83
2018-06-11T21:45:56.180Z,22.80
2018-06-11T21:48:25.826Z,22.74
2018-06-11T21:50:55.344Z,22.70
2018-06-11T21:53:24.800Z,22.57
2018-06-11T21:55:54.363Z,22.66
2018-06-11T21:58:23.822Z,22.61
2018-06-11T22:00:53.372Z,22.57
2018-06-11T22:03:22.951Z,22.55
2018-06-11T22:05:52.412Z,22.35
2018-06-11T22:08:22.023Z,22.24
2018-06-11T22:10:51.598Z,22.31
2018-06-11T22:13:20.987Z,22.30
2018-06-11T22:15:50.559Z,22.14
2018-06-11T22:18:20.123Z,22.21
2018-06-11T22:20:49.530Z,22.21
2018-06-11T22:23:18.953Z,22.11
2018-06-11T22:25:48.445Z,22.24
2018-06-11T22:28:18.037Z,22.30
2018-06-11T22:30:47.493Z,22.14
2018-06-11T22:33:17.129Z,22.29
2018-06-11T22:35:46.579Z,22.07
2018-06-11T22:38:15.999Z,22.07
2018-06-11T22:40:45.423Z,22.14
2018-06-11T22:43:15.023Z,22.01
2018-06-11T22:45:44.569Z,21.97
2018-06-11T22:48:14.090Z,21.93
2018-06-11T22:50:43.536Z,21.93
2018-06-11T22:53:13.183Z,21.89
2018-06-11T22:55:42.658Z,21.67
2018-06-11T22:58:12.234Z,21.75
2018-06-11T23:00:41.751Z,21.77
2018-06-11T23:03:11.298Z,21.62
2018-06-11T23:05:40.709Z,21.62
2018-06-11T23:08:10.259Z,21.60
2018-06-11T23:10:39.786Z,21.36
2018-06-11T23:13:09.271Z,21.39
2018-06-11T23:15:38.720Z,21.31
2018-06-11T23:18:08.203Z,21.19
2018-06-11T23:20:37.692Z,21.26
2018-06-11T23:23:07.255Z,21.37
2018-06-11T23:25:36.670Z,21.29
2018-06-11T23:28:07.237Z,21.20
2018-06-11T23:30:36.802Z,21.17
2018-06-11T23:33:06.478Z,21.27
2018-06-11T23:35:35.969Z,21.10
2018-06-11T23:38:05.414Z,21.19
2018-06-11T23:40:34.959Z,21.10
2018-06-11T23:51:56.594Z,20.98
2018-06-11T23:54:26.165Z,20.94
2018-06-11T23:56:55.683Z,20.87
2018-06-11T23:59:25.162Z,20.94
